createdAt,value
2018-04-01T03:23:53.397Z,85.86
2018-04-01T03:24:53.367Z,86.14
2018-04-01T03:25:53.367Z,86.24
2018-04-01T03:26:53.395Z,85.57
2018-04-01T03:27:53.332Z,85.95
2018-04-01T03:28:53.315Z,85.76
2018-04-01T03:29:53.307Z,85.86
2018-04-01T03:30:53.296Z,85.38
2018-04-01T03:31:53.291Z,85.28
2018-04-01T03:32:53.307Z,85.57
2018-04-01T03:33:53.275Z,85.47
2018-04-01T03:34:53.275Z,84.81
2018-04-01T03:35:53.271Z,85.66
2018-04-01T03:36:53.297Z,85.47
2018-04-01T03:37:53.253Z,85.66
2018-04-01T03:38:53.238Z,85.76
2018-04-01T03:39:53.232Z,84.81
2018-04-01T03:40:53.227Z,84.72
2018-04-01T03:41:53.219Z,84.91
2018-04-01T03:42:53.223Z,84.43
2018-04-01T03:43:53.212Z,84.05
2018-04-01T03:44:53.204Z,84.24
2018-04-01T03:45:53.189Z,83.86
2018-04-01T03:46:53.190Z,84.52
2018-04-01T03:47:53.211Z,83.95
2018-04-01T03:48:53.175Z,83.76
2018-04-01T03:49:53.180Z,84.14
2018-04-01T03:50:53.169Z,83.39
2018-04-01T03:51:53.173Z,83.58
2018-04-01T03:52:53.152Z,83.86
2018-04-01T03:53:53.143Z,84.14
2018-04-01T03:54:53.140Z,84.24
2018-04-01T03:55:53.138Z,83.95
2018-04-01T03:56:53.163Z,84.33
2018-04-01T03:57:53.122Z,83.86
2018-04-01T03:58:53.113Z,84.24
2018-04-01T03:59:53.106Z,83.86
2018-04-01T04:00:53.104Z,84.24
2018-04-01T04:01:53.099Z,84.14
2018-04-01T04:02:53.100Z,83.86
2018-04-01T04:03:53.098Z,83.58
2018-04-01T04:04:53.082Z,83.48
2018-04-01T04:05:53.107Z,83.67
2018-04-01T04:06:53.064Z,83.76
2018-04-01T04:07:53.070Z,83.76
2018-04-01T04:08:53.064Z,83.86
2018-04-01T04:09:53.050Z,83.67
2018-04-01T04:10:53.046Z,83.67
2018-04-01T04:11:53.050Z,83.04
2018-04-01T04:12:53.040Z,83.29
2018-04-01T04:13:53.027Z,83.86
2018-04-01T04:14:53.039Z,83.39
2018-04-01T04:15:53.016Z,82.53
2018-04-01T04:16:53.009Z,83.48
2018-04-01T04:17:53.020Z,83.67
2018-04-01T04:18:53.015Z,83.19
2018-04-01T04:19:53.002Z,82.91
2018-04-01T04:20:52.998Z,83.10
2018-04-01T04:21:52.983Z,82.91
2018-04-01T04:22:53.019Z,83.39
2018-04-01T04:23:52.985Z,83.39
2018-04-01T04:24:52.967Z,83.19
2018-04-01T04:25:52.963Z,83.29
2018-04-01T04:26:52.960Z,83.19
2018-04-01T04:27:52.955Z,82.91
2018-04-01T04:28:52.953Z,82.95
2018-04-01T04:29:52.939Z,83.19
2018-04-01T04:30:52.928Z,83.48
2018-04-01T04:31:52.943Z,82.81
2018-04-01T04:32:52.936Z,82.71
2018-04-01T04:33:52.911Z,82.43
2018-04-01T04:34:52.903Z,82.67
2018-04-01T04:35:52.931Z,82.71
2018-04-01T04:36:52.914Z,83.29
2018-04-01T04:37:52.892Z,82.71
2018-04-01T04:38:52.889Z,82.53
2018-04-01T04:39:52.899Z,82.81
2018-04-01T04:40:52.881Z,82.91
2018-04-01T04:41:52.876Z,82.53
2018-04-01T04:42:52.862Z,82.53
2018-04-01T04:43:52.864Z,82.81
2018-04-01T04:44:52.862Z,82.81
2018-04-01T04:45:52.853Z,82.71
2018-04-01T04:46:52.851Z,82.43
2018-04-01T04:47:52.842Z,82.53
2018-04-01T04:48:52.837Z,83.19
2018-04-01T04:49:52.829Z,82.62
2018-04-01T04:50:52.822Z,82.57
2018-04-01T04:51:52.810Z,81.86
2018-04-01T04:52:52.815Z,81.71
2018-04-01T04:53:52.820Z,81.71
2018-04-01T04:54:52.801Z,82.53
2018-04-01T04:55:52.794Z,82.53
2018-04-01T04:56:52.786Z,82.62
2018-04-01T04:57:52.776Z,82.24
2018-04-01T04:58:52.767Z,81.67
2018-04-01T04:59:52.768Z,82.05
2018-04-01T05:00:52.773Z,82.34
2018-04-01T05:01:52.802Z,82.24
2018-04-01T05:02:52.777Z,81.81
2018-04-01T05:03:52.756Z,81.86
2018-04-01T05:04:52.737Z,81.77
2018-04-01T05:05:52.735Z,81.58
2018-04-01T05:06:52.721Z,81.33
2018-04-01T05:07:52.717Z,81.29
2018-04-01T05:08:52.715Z,81.33
2018-04-01T05:09:52.736Z,81.20
2018-04-01T05:10:52.702Z,80.91
2018-04-01T05:11:52.701Z,81.52
2018-04-01T05:12:52.690Z,80.72
2018-04-01T05:13:52.680Z,81.38
2018-04-01T05:14:52.674Z,81.29
2018-04-01T05:15:52.681Z,80.63
2018-04-01T05:16:52.678Z,80.82
2018-04-01T05:17:52.667Z,81.10
2018-04-01T05:18:52.667Z,80.44
2018-04-01T05:19:52.656Z,80.44
2018-04-01T05:20:52.644Z,80.63
2018-04-01T05:21:52.637Z,80.05
2018-04-01T05:22:52.626Z,79.49
2018-04-01T05:23:52.625Z,79.96
2018-04-01T05:24:52.629Z,79.86
2018-04-01T05:25:52.614Z,79.58
2018-04-01T05:26:52.650Z,79.39
2018-04-01T05:27:52.615Z,78.82
2018-04-01T05:28:52.592Z,79.39
2018-04-01T05:29:52.593Z,79.68
2018-04-01T05:30:52.580Z,79.77
2018-04-01T05:31:52.579Z,79.58
2018-04-01T05:32:52.570Z,79.11
2018-04-01T05:33:52.571Z,78.63
2018-04-01T05:34:52.576Z,78.63
2018-04-01T05:37:14.179Z,78.91
2018-04-01T05:38:13.784Z,78.34
2018-04-01T05:39:13.752Z,78.29
2018-04-01T05:40:13.746Z,78.48
2018-04-01T05:41:13.743Z,78.25
2018-04-01T05:42:13.737Z,78.67
2018-04-01T05:43:23.134Z,78.19
2018-04-01T05:45:07.142Z,78.10
2018-04-01T05:46:07.113Z,78.72
2018-04-01T05:47:07.108Z,78.63
2018-04-01T05:48:07.104Z,78.34
2018-04-01T05:49:07.102Z,78.25
2018-04-01T05:50:07.120Z,78.63
2018-04-01T05:51:07.146Z,78.44
2018-04-01T05:52:07.091Z,78.44
2018-04-01T05:53:07.074Z,77.97
2018-04-01T05:54:07.075Z,78.19
2018-04-01T05:55:07.066Z,77.91
2018-04-01T05:56:07.056Z,78.10
2018-04-01T05:57:07.054Z,77.81
2018-04-01T05:58:07.054Z,77.72
2018-04-01T05:59:07.040Z,77.53
2018-04-01T06:00:07.036Z,77.62
2018-04-01T06:01:07.033Z,77.24
2018-04-01T06:02:07.022Z,77.43
2018-04-01T06:03:07.020Z,77.72
2018-04-01T06:04:07.012Z,77.24
2018-04-01T06:05:07.004Z,76.86
2018-04-01T06:06:07.007Z,76.76
2018-04-01T06:07:06.996Z,77.15
2018-04-01T06:08:06.992Z,77.24
2018-04-01T06:09:06.997Z,76.76
2018-04-01T06:10:06.982Z,76.86
2018-04-01T06:11:06.973Z,76.76
2018-04-01T06:12:06.972Z,77.34
2018-04-01T06:13:06.958Z,77.58
2018-04-01T06:14:06.963Z,77.30
2018-04-01T06:15:06.978Z,77.05
2018-04-01T06:16:06.973Z,77.24
2018-04-01T06:17:06.940Z,77.24
2018-04-01T06:18:06.933Z,77.53
2018-04-01T06:19:06.931Z,77.53
2018-04-01T06:20:06.920Z,77.43
2018-04-01T06:21:06.923Z,77.72
2018-04-01T06:22:06.931Z,77.53
2018-04-01T06:23:06.926Z,77.68
2018-04-01T06:24:06.899Z,78.10
2018-04-01T06:25:06.898Z,77.77
2018-04-01T06:26:06.890Z,77.87
2018-04-01T06:27:06.901Z,77.81
2018-04-01T06:28:06.874Z,77.77
2018-04-01T06:29:06.866Z,77.72
2018-04-01T06:30:06.872Z,78.19
2018-04-01T06:31:06.902Z,78.38
2018-04-01T06:32:06.864Z,78.19
2018-04-01T06:33:06.856Z,78.48
2018-04-01T06:34:06.844Z,78.29
2018-04-01T06:35:06.852Z,78.96
2018-04-01T06:36:06.832Z,79.05
2018-04-01T06:37:06.827Z,78.91
2018-04-01T06:38:06.822Z,78.86
2018-04-01T06:39:06.816Z,78.82
2018-04-01T06:40:06.871Z,78.29
2018-04-01T06:41:06.805Z,78.38
2018-04-01T06:42:06.794Z,77.72
2018-04-01T06:43:06.800Z,78.00
2018-04-01T06:44:06.788Z,78.10
2018-04-01T06:45:06.786Z,77.91
2018-04-01T06:46:06.771Z,77.91
2018-04-01T06:47:06.770Z,77.53
2018-04-01T06:48:06.778Z,77.91
2018-04-01T06:49:06.755Z,77.91
2018-04-01T06:50:06.756Z,77.91
2018-04-01T06:51:06.748Z,77.91
2018-04-01T06:52:06.746Z,78.10
2018-04-01T06:53:06.737Z,78.29
2018-04-01T06:54:06.733Z,77.91
2018-04-01T06:55:06.732Z,78.10
2018-04-01T06:56:06.726Z,77.81
2018-04-01T06:57:06.710Z,77.81
2018-04-01T06:58:06.712Z,78.48
2018-04-01T06:59:06.698Z,78.29
2018-04-01T07:00:06.698Z,78.38
2018-04-01T07:01:06.688Z,77.91
2018-04-01T07:02:06.694Z,77.91
2018-04-01T07:03:06.682Z,77.62
2018-04-01T07:04:06.708Z,77.43
2018-04-01T07:05:06.683Z,77.91
2018-04-01T07:06:06.673Z,77.91
2018-04-01T07:07:06.658Z,77.72
2018-04-01T07:08:06.702Z,77.91
2018-04-01T07:09:06.647Z,77.34
2018-04-01T07:10:06.646Z,77.62
2018-04-01T07:11:06.634Z,78.19
2018-04-01T07:12:06.645Z,77.62
2018-04-01T07:13:06.630Z,77.76
2018-04-01T07:14:06.649Z,77.53
2018-04-01T07:15:06.611Z,77.81
2018-04-01T07:16:06.605Z,78.48
2018-04-01T07:17:06.692Z,78.29
2018-04-01T07:18:06.600Z,77.72
2018-04-01T07:19:06.590Z,77.81
2018-04-01T07:20:06.599Z,77.91
2018-04-01T07:21:06.620Z,77.81
2018-04-01T07:22:06.594Z,78.10
2018-04-01T07:23:06.563Z,78.57
2018-04-01T07:24:06.564Z,78.10
2018-04-01T07:25:06.566Z,77.81
2018-04-01T07:26:06.564Z,77.81
2018-04-01T07:27:06.555Z,78.10
2018-04-01T07:28:06.543Z,78.10
2018-04-01T07:29:06.660Z,78.10
2018-04-01T07:30:06.559Z,77.91
2018-04-01T07:31:06.534Z,78.10
2018-04-01T07:32:06.574Z,77.91
2018-04-01T07:33:06.518Z,78.10
2018-04-01T07:34:06.507Z,78.19
2018-04-01T07:35:06.543Z,78.10
2018-04-01T07:36:06.532Z,77.34
2018-04-01T07:37:06.508Z,77.81
2018-04-01T07:38:06.569Z,78.19
2018-04-01T07:39:06.610Z,77.24
2018-04-01T07:40:06.555Z,77.81
2018-04-01T07:41:06.474Z,77.43
2018-04-01T07:42:06.488Z,77.24
2018-04-01T07:43:06.456Z,76.90
2018-04-01T07:44:06.505Z,77.05
2018-04-01T07:45:06.457Z,77.05
2018-04-01T07:46:06.453Z,76.76
2018-04-01T07:47:06.434Z,76.96
2018-04-01T07:48:06.428Z,77.43
2018-04-01T07:49:06.424Z,77.34
2018-04-01T07:50:06.473Z,77.34
2018-04-01T07:51:06.438Z,76.96
2018-04-01T07:52:06.409Z,76.86
2018-04-01T07:53:06.408Z,76.57
2018-04-01T07:54:06.410Z,76.81
2018-04-01T07:55:06.454Z,76.96
2018-04-01T07:56:06.387Z,76.42
2018-04-01T07:57:15.047Z,76.61
2018-04-01T07:59:00.496Z,78.10
2018-04-01T08:00:00.931Z,78.19
2018-04-01T08:00:59.994Z,78.96
2018-04-01T08:01:59.987Z,79.52
2018-04-01T08:03:00.236Z,79.81
2018-04-01T08:03:59.954Z,80.10
2018-04-01T08:04:59.959Z,80.66
2018-04-01T08:05:59.948Z,80.66
2018-04-01T08:06:59.947Z,80.10
2018-04-01T08:08:00.049Z,80.19
2018-04-01T08:08:59.962Z,79.24
2018-04-01T08:09:59.923Z,78.90
2018-04-01T08:10:59.990Z,79.24
2018-04-01T08:12:00.028Z,79.33
2018-04-01T08:12:59.981Z,79.62
2018-04-01T08:13:59.980Z,80.10
2018-04-01T08:15:00.762Z,80.66
2018-04-01T08:15:59.932Z,81.14
2018-04-01T08:16:59.915Z,82.81
2018-04-01T08:17:59.925Z,83.86
2018-04-01T08:19:00.119Z,83.71
2018-04-01T08:19:59.879Z,84.05
2018-04-01T08:20:59.975Z,85.10
2018-04-01T08:21:59.861Z,85.47
2018-04-01T08:22:59.874Z,85.86
2018-04-01T08:23:59.970Z,85.86
2018-04-01T08:24:59.902Z,85.38
2018-04-01T08:25:59.860Z,86.14
2018-04-01T08:26:59.854Z,85.66
2018-04-01T08:27:59.830Z,85.95
2018-04-01T08:28:59.817Z,85.95
2018-04-01T08:29:59.821Z,85.76
2018-04-01T08:30:59.808Z,86.52
2018-04-01T08:31:59.819Z,86.90
2018-04-01T08:34:20.852Z,87.47
2018-04-01T08:35:20.840Z,87.19
2018-04-01T08:36:20.848Z,87.38
2018-04-01T08:37:29.476Z,86.33
2018-04-01T08:39:15.215Z,87.66
2018-04-01T08:41:36.252Z,88.33
2018-04-01T08:42:36.231Z,88.04
2018-04-01T08:43:36.243Z,88.52
2018-04-01T08:44:36.249Z,89.18
2018-04-01T08:45:36.245Z,89.28
2018-04-01T08:46:36.208Z,89.56
2018-04-01T08:47:36.203Z,89.66
2018-04-01T08:48:36.200Z,90.42
2018-04-01T08:49:36.222Z,90.61
2018-04-01T08:50:36.185Z,91.08
2018-04-01T08:51:36.194Z,90.52
2018-04-01T08:52:36.171Z,90.33
2018-04-01T08:53:36.192Z,89.75
2018-04-01T08:54:36.190Z,90.04
2018-04-01T08:55:36.158Z,90.52
2018-04-01T08:56:36.154Z,90.61
2018-04-01T08:57:36.158Z,88.71
2018-04-01T08:58:36.143Z,88.18
2018-04-01T08:59:36.203Z,88.66
2018-04-01T09:00:36.140Z,88.85
2018-04-01T09:01:36.140Z,88.56
2018-04-01T09:02:36.127Z,88.56
2018-04-01T09:03:36.122Z,88.56
2018-04-01T09:04:36.110Z,87.61
2018-04-01T09:05:36.108Z,88.28
2018-04-01T09:06:36.098Z,88.56
2018-04-01T09:07:36.093Z,87.13
2018-04-01T09:08:36.089Z,86.85
2018-04-01T09:09:36.105Z,87.13
2018-04-01T09:10:36.107Z,87.99
2018-04-01T09:11:36.073Z,87.90
2018-04-01T09:12:36.065Z,87.99
2018-04-01T09:13:36.061Z,86.94
2018-04-01T09:14:36.060Z,87.23
2018-04-01T09:15:36.055Z,87.13
2018-04-01T09:16:36.051Z,86.76
2018-04-01T09:17:36.039Z,86.13
2018-04-01T09:18:36.057Z,85.47
2018-04-01T09:19:36.041Z,84.47
2018-04-01T09:20:36.019Z,84.47
2018-04-01T09:21:36.024Z,83.23
2018-04-01T09:22:36.017Z,83.23
2018-04-01T09:23:36.009Z,83.04
2018-04-01T09:24:44.654Z,82.86
2018-04-01T09:26:29.405Z,82.70
2018-04-01T09:27:29.408Z,83.23
2018-04-01T09:28:29.377Z,82.48
2018-04-01T09:29:29.377Z,82.48
2018-04-01T09:31:50.477Z,81.47
2018-04-01T09:32:58.079Z,81.18
2018-04-01T09:33:59.145Z,80.71
2018-04-01T09:35:53.909Z,81.95
2018-04-01T09:36:52.497Z,80.90
2018-04-01T09:38:37.774Z,81.18
2018-04-01T09:40:58.249Z,81.37
2018-04-01T09:41:58.274Z,81.47
2018-04-01T09:43:06.883Z,82.14
2018-04-01T09:44:51.673Z,82.90
2018-04-01T09:45:59.274Z,83.42
2018-04-01T09:47:00.254Z,83.04
2018-04-01T09:48:44.950Z,83.81
2018-04-01T09:49:44.951Z,85.04
2018-04-01T09:51:38.370Z,85.47
2018-04-01T09:52:38.328Z,86.14
2018-04-01T09:53:38.325Z,85.53
2018-04-01T09:54:40.183Z,85.86
2018-04-01T09:55:38.336Z,86.52
2018-04-01T09:56:38.311Z,85.95
2018-04-01T09:57:38.396Z,85.86
2018-04-01T09:58:38.309Z,85.66
2018-04-01T09:59:38.286Z,85.76
2018-04-01T10:00:38.331Z,86.33
2018-04-01T10:01:38.321Z,85.28
2018-04-01T10:02:38.304Z,84.43
2018-04-01T10:03:38.264Z,84.14
2018-04-01T10:04:38.256Z,84.62
2018-04-01T10:05:38.255Z,84.72
2018-04-01T10:06:38.260Z,84.91
2018-04-01T10:07:38.241Z,84.52
2018-04-01T10:08:38.244Z,84.47
2018-04-01T10:09:38.243Z,84.43
2018-04-01T10:10:38.262Z,84.76
2018-04-01T10:11:38.237Z,84.52
2018-04-01T10:12:38.217Z,85.14
2018-04-01T10:13:38.213Z,84.85
2018-04-01T10:14:38.211Z,84.85
2018-04-01T10:15:38.208Z,84.28
2018-04-01T10:16:38.196Z,83.62
2018-04-01T10:17:38.210Z,83.62
2018-04-01T10:18:38.214Z,84.19
2018-04-01T10:19:38.198Z,84.28
2018-04-01T10:20:38.167Z,83.85
2018-04-01T10:21:38.167Z,83.52
2018-04-01T10:22:38.177Z,84.66
2018-04-01T10:23:38.168Z,84.23
2018-04-01T10:24:38.154Z,84.09
2018-04-01T10:25:38.174Z,83.47
2018-04-01T10:26:38.199Z,83.47
2018-04-01T10:27:38.140Z,83.90
2018-04-01T10:28:38.157Z,83.94
2018-04-01T10:29:38.138Z,83.65
2018-04-01T10:30:38.113Z,83.37
2018-04-01T10:31:38.132Z,81.60
2018-04-01T10:32:38.120Z,81.09
2018-04-01T10:33:38.130Z,81.03
2018-04-01T10:34:38.147Z,80.90
2018-04-01T10:35:46.744Z,81.47
2018-04-01T10:37:32.607Z,81.18
2018-04-01T10:38:32.532Z,81.56
2018-04-01T10:39:32.493Z,80.84
2018-04-01T10:40:32.526Z,80.46
2018-04-01T10:41:32.466Z,80.65
2018-04-01T10:42:32.480Z,79.41
2018-04-01T10:43:32.626Z,80.27
2018-04-01T10:44:32.480Z,80.42
2018-04-01T10:45:32.479Z,80.75
2018-04-01T10:46:32.475Z,80.36
2018-04-01T10:47:32.472Z,80.94
2018-04-01T10:48:32.456Z,80.08
2018-04-01T10:49:32.478Z,79.80
2018-04-01T10:50:32.424Z,79.41
2018-04-01T10:52:54.630Z,80.84
2018-04-01T10:53:54.601Z,80.90
2018-04-01T10:54:54.611Z,80.75
2018-04-01T10:55:54.644Z,80.90
2018-04-01T10:56:54.688Z,80.84
2018-04-01T10:58:03.193Z,81.66
2018-04-01T10:59:48.973Z,81.18
2018-04-01T11:00:48.956Z,80.52
2018-04-01T11:01:48.984Z,80.42
2018-04-01T11:02:49.023Z,80.42
2018-04-01T11:03:49.035Z,80.52
2018-04-01T11:04:48.934Z,79.89
2018-04-01T11:07:10.001Z,81.09
2018-04-01T11:08:09.989Z,81.66
2018-04-01T11:09:10.021Z,80.90
2018-04-01T11:10:10.016Z,80.99
2018-04-01T11:11:09.950Z,80.95
2018-04-01T11:12:09.919Z,81.18
2018-04-01T11:13:09.948Z,81.85
2018-04-01T11:14:09.920Z,81.47
2018-04-01T11:15:09.937Z,80.71
2018-04-01T11:16:09.910Z,80.61
2018-04-01T11:17:09.923Z,80.71
2018-04-01T11:18:09.884Z,80.71
2018-04-01T11:19:09.902Z,80.23
2018-04-01T11:20:09.923Z,80.52
2018-04-01T11:21:09.883Z,80.71
2018-04-01T11:22:09.877Z,80.90
2018-04-01T11:23:09.885Z,81.18
2018-04-01T11:24:09.915Z,81.24
2018-04-01T11:25:09.900Z,80.99
2018-04-01T11:26:09.847Z,80.90
2018-04-01T11:27:09.836Z,80.61
2018-04-01T11:28:09.833Z,80.13
2018-04-01T11:29:09.830Z,79.75
2018-04-01T11:30:09.839Z,79.75
2018-04-01T11:31:18.518Z,79.66
2018-04-01T11:33:04.250Z,80.61
2018-04-01T11:34:04.329Z,80.71
2018-04-01T11:35:04.424Z,79.38
2018-04-01T11:36:04.234Z,79.28
2018-04-01T11:37:04.191Z,79.47
2018-04-01T11:39:25.324Z,78.99
2018-04-01T11:40:25.256Z,79.19
2018-04-01T11:42:18.921Z,78.75
2018-04-01T11:43:18.848Z,78.75
2018-04-01T11:44:18.929Z,78.90
2018-04-01T11:45:18.851Z,78.99
2018-04-01T11:46:18.893Z,79.38
2018-04-01T11:47:18.873Z,79.47
2018-04-01T11:48:18.799Z,79.28
2018-04-01T11:49:18.828Z,79.57
2018-04-01T11:50:18.787Z,78.99
2018-04-01T11:51:18.790Z,79.19
2018-04-01T11:52:18.780Z,78.80
2018-04-01T11:53:18.804Z,80.33
2018-04-01T11:54:18.790Z,80.52
2018-04-01T11:55:18.772Z,81.18
2018-04-01T11:56:18.764Z,81.28
2018-04-01T11:57:18.799Z,80.42
2018-04-01T11:58:18.748Z,80.99
2018-04-01T11:59:18.755Z,80.90
2018-04-01T12:00:18.742Z,81.56
2018-04-01T12:01:18.762Z,81.95
2018-04-01T12:02:18.770Z,81.66
2018-04-01T12:03:18.755Z,81.76
2018-04-01T12:04:18.725Z,81.09
2018-04-01T12:05:18.751Z,81.28
2018-04-01T12:06:18.726Z,81.28
2018-04-01T12:07:18.753Z,80.33
2018-04-01T12:08:18.714Z,78.99
2018-04-01T12:09:18.708Z,78.42
2018-04-01T12:12:12.408Z,77.00
2018-04-01T12:13:12.364Z,77.00
2018-04-01T12:14:12.363Z,76.23
2018-04-01T12:15:12.379Z,77.00
2018-04-01T12:16:21.711Z,75.19
2018-04-01T12:18:05.878Z,74.56
2018-04-01T12:19:05.760Z,74.37
2018-04-01T12:20:05.766Z,73.22
2018-04-01T12:21:05.741Z,74.08
2018-04-01T12:22:05.782Z,73.51
2018-04-01T12:23:05.685Z,73.51
2018-04-01T12:24:05.772Z,73.28
2018-04-01T12:25:05.715Z,73.61
2018-04-01T12:26:05.709Z,73.51
2018-04-01T12:27:05.721Z,73.32
2018-04-01T12:28:05.686Z,73.32
2018-04-01T12:29:14.335Z,73.22
2018-04-01T12:30:59.093Z,73.13
2018-04-01T12:32:08.752Z,73.61
2018-04-01T12:34:00.188Z,74.08
2018-04-01T12:36:13.494Z,74.04
2018-04-01T12:37:13.528Z,75.09
2018-04-01T12:38:13.539Z,75.13
2018-04-01T12:39:13.469Z,74.33
2018-04-01T12:40:13.456Z,74.90
2018-04-01T12:41:13.478Z,73.76
2018-04-01T12:42:13.454Z,73.95
2018-04-01T12:43:13.417Z,73.19
2018-04-01T12:45:35.479Z,73.22
